sensor_id;sensor_type;location;lat;lon;timestamp;pressure;altitude;pressure_sealevel;temperature;humidity
61908;BME280;47864;52.526;19.672;2023-02-23T00:01:54;101366.66;;;-0.19;100.00
61908;BME280;47864;52.526;19.672;2023-02-23T00:03:57;101362.75;;;-0.09;100.00
61908;BME280;47864;52.526;19.672;2023-02-23T00:06:01;101362.94;;;-0.14;100.00
61908;BME280;47864;52.526;19.672;2023-02-23T00:08:03;101359.53;;;-0.16;100.00
61908;BME280;47864;52.526;19.672;2023-02-23T00:10:05;101361.81;;;-0.08;100.00
61908;BME280;47864;52.526;19.672;2023-02-23T00:12:06;101364.72;;;0.06;100.00
61908;BME280;47864;52.526;19.672;2023-02-23T00:14:08;101360.53;;;-0.18;100.00
61908;BME280;47864;52.526;19.672;2023-02-23T00:16:13;101349.41;;;-0.02;100.00
61908;BME280;47864;52.526;19.672;2023-02-23T00:18:15;101365.34;;;0.11;99.77
61908;BME280;47864;52.526;19.672;2023-02-23T00:20:16;101360.53;;;0.02;99.72
61908;BME280;47864;52.526;19.672;2023-02-23T00:22:18;101345.22;;;-0.06;100.00
61908;BME280;47864;52.526;19.672;2023-02-23T00:24:19;101359.88;;;-0.03;100.00
61908;BME280;47864;52.526;19.672;2023-02-23T00:26:23;101352.97;;;-0.04;100.00
61908;BME280;47864;52.526;19.672;2023-02-23T00:28:25;101362.66;;;-0.08;99.73
61908;BME280;47864;52.526;19.672;2023-02-23T00:30:26;101350.44;;;-0.06;99.79
61908;BME280;47864;52.526;19.672;2023-02-23T00:32:28;101338.16;;;-0.24;100.00
61908;BME280;47864;52.526;19.672;2023-02-23T00:34:30;101336.00;;;-0.14;99.42
61908;BME280;47864;52.526;19.672;2023-02-23T00:36:33;101332.88;;;-0.22;100.00
61908;BME280;47864;52.526;19.672;2023-02-23T00:38:36;101341.63;;;-0.23;99.58
61908;BME280;47864;52.526;19.672;2023-02-23T00:40:41;101352.56;;;-0.15;100.00
61908;BME280;47864;52.526;19.672;2023-02-23T00:42:43;101349.25;;;-0.19;100.00
61908;BME280;47864;52.526;19.672;2023-02-23T00:44:45;101349.38;;;-0.22;100.00
61908;BME280;47864;52.526;19.672;2023-02-23T00:46:46;101349.56;;;-0.06;99.18
61908;BME280;47864;52.526;19.672;2023-02-23T00:48:49;101348.88;;;-0.10;99.35
61908;BME280;47864;52.526;19.672;2023-02-23T00:51:00;101336.28;;;-0.20;99.69
61908;BME280;47864;52.526;19.672;2023-02-23T00:53:01;101334.31;;;-0.15;99.31
61908;BME280;47864;52.526;19.672;2023-02-23T00:55:04;101346.31;;;-0.11;99.75
61908;BME280;47864;52.526;19.672;2023-02-23T00:57:06;101344.22;;;-0.23;99.65
61908;BME280;47864;52.526;19.672;2023-02-23T00:59:09;101341.56;;;-0.22;99.35
61908;BME280;47864;52.526;19.672;2023-02-23T01:01:12;101344.16;;;-0.22;100.00
61908;BME280;47864;52.526;19.672;2023-02-23T01:03:14;101324.69;;;-0.33;100.00
61908;BME280;47864;52.526;19.672;2023-02-23T01:05:16;101337.19;;;-0.21;99.45
61908;BME280;47864;52.526;19.672;2023-02-23T01:07:17;101344.94;;;-0.20;98.65
61908;BME280;47864;52.526;19.672;2023-02-23T01:09:19;101347.63;;;-0.21;99.70
61908;BME280;47864;52.526;19.672;2023-02-23T01:11:23;101335.81;;;-0.30;99.28
61908;BME280;47864;52.526;19.672;2023-02-23T01:13:24;101349.25;;;-0.19;100.00
61908;BME280;47864;52.526;19.672;2023-02-23T01:15:26;101344.44;;;-0.28;98.77
61908;BME280;47864;52.526;19.672;2023-02-23T01:17:27;101354.31;;;-0.16;99.35
61908;BME280;47864;52.526;19.672;2023-02-23T01:19:29;101354.41;;;-0.17;98.66
61908;BME280;47864;52.526;19.672;2023-02-23T01:21:40;101359.31;;;-0.10;99.52
61908;BME280;47864;52.526;19.672;2023-02-23T01:23:42;101354.41;;;-0.17;99.62
61908;BME280;47864;52.526;19.672;2023-02-23T01:25:44;101345.28;;;-0.27;98.94
61908;BME280;47864;52.526;19.672;2023-02-23T01:27:45;101345.91;;;-0.22;99.40
61908;BME280;47864;52.526;19.672;2023-02-23T01:29:47;101338.94;;;-0.22;98.60
61908;BME280;47864;52.526;19.672;2023-02-23T01:31:48;101354.53;;;-0.20;98.49
61908;BME280;47864;52.526;19.672;2023-02-23T01:33:54;101351.94;;;-0.20;99.15
61908;BME280;47864;52.526;19.672;2023-02-23T01:35:58;101355.66;;;-0.26;99.59
61908;BME280;47864;52.526;19.672;2023-02-23T01:38:00;101347.41;;;-0.37;100.00
61908;BME280;47864;52.526;19.672;2023-02-23T01:40:02;101344.75;;;-0.35;100.00
61908;BME280;47864;52.526;19.672;2023-02-23T01:42:08;101341.47;;;-0.41;100.00
61908;BME280;47864;52.526;19.672;2023-02-23T01:46:14;101325.75;;;-0.39;100.00
61908;BME280;47864;52.526;19.672;2023-02-23T01:48:18;101348.97;;;-0.33;100.00
61908;BME280;47864;52.526;19.672;2023-02-23T01:50:21;101345.53;;;-0.33;100.00
61908;BME280;47864;52.526;19.672;2023-02-23T01:52:24;101345.59;;;-0.35;100.00
61908;BME280;47864;52.526;19.672;2023-02-23T01:54:41;101337.09;;;-0.40;100.00
61908;BME280;47864;52.526;19.672;2023-02-23T01:56:46;101323.09;;;-0.58;100.00
61908;BME280;47864;52.526;19.672;2023-02-23T01:58:50;101334.94;;;-0.51;100.00
61908;BME280;47864;52.526;19.672;2023-02-23T02:00:57;101354.03;;;-0.50;100.00
61908;BME280;47864;52.526;19.672;2023-02-23T02:03:01;101312.34;;;-0.72;100.00
61908;BME280;47864;52.526;19.672;2023-02-23T02:05:05;101339.25;;;-0.50;100.00
61908;BME280;47864;52.526;19.672;2023-02-23T02:07:08;101327.81;;;-0.67;100.00
61908;BME280;47864;52.526;19.672;2023-02-23T02:09:13;101336.78;;;-0.74;100.00
61908;BME280;47864;52.526;19.672;2023-02-23T02:11:17;101342.22;;;-0.59;100.00
61908;BME280;47864;52.526;19.672;2023-02-23T02:13:21;101325.63;;;-0.78;100.00
61908;BME280;47864;52.526;19.672;2023-02-23T02:15:28;101319.22;;;-0.91;100.00
61908;BME280;47864;52.526;19.672;2023-02-23T02:22:35;101313.94;;;-0.90;100.00
61908;BME280;47864;52.526;19.672;2023-02-23T02:27:29;101326.34;;;-0.96;100.00
61908;BME280;47864;52.526;19.672;2023-02-23T02:32:06;101325.03;;;-0.85;100.00
61908;BME280;47864;52.526;19.672;2023-02-23T02:34:24;101326.25;;;-0.93;100.00
61908;BME280;47864;52.526;19.672;2023-02-23T02:41:51;101327.03;;;-0.91;100.00
61908;BME280;47864;52.526;19.672;2023-02-23T02:44:08;101322.50;;;-0.86;100.00
61908;BME280;47864;52.526;19.672;2023-02-23T02:46:19;101322.53;;;-0.88;100.00
61908;BME280;47864;52.526;19.672;2023-02-23T02:49:26;101308.81;;;-0.91;100.00
61908;BME280;47864;52.526;19.672;2023-02-23T02:51:17;101314.94;;;-0.92;100.00
61908;BME280;47864;52.526;19.672;2023-02-23T02:53:27;101304.91;;;-1.03;100.00
61908;BME280;47864;52.526;19.672;2023-02-23T02:55:32;101309.81;;;-0.95;100.00
61908;BME280;47864;52.526;19.672;2023-02-23T02:57:35;101311.81;;;-1.02;100.00
61908;BME280;47864;52.526;19.672;2023-02-23T02:59:46;101306.22;;;-0.91;100.00
61908;BME280;47864;52.526;19.672;2023-02-23T03:01:47;101306.44;;;-0.97;100.00
61908;BME280;47864;52.526;19.672;2023-02-23T03:03:49;101309.47;;;-0.86;100.00
61908;BME280;47864;52.526;19.672;2023-02-23T03:05:51;101306.31;;;-0.94;100.00
61908;BME280;47864;52.526;19.672;2023-02-23T03:10:33;101309.81;;;-0.95;100.00
61908;BME280;47864;52.526;19.672;2023-02-23T03:12:43;101307.66;;;-0.84;100.00
61908;BME280;47864;52.526;19.672;2023-02-23T03:19:27;101304.91;;;-0.81;100.00
61908;BME280;47864;52.526;19.672;2023-02-23T03:21:35;101301.34;;;-1.00;100.00
61908;BME280;47864;52.526;19.672;2023-02-23T03:24:03;101297.66;;;-0.95;100.00
61908;BME280;47864;52.526;19.672;2023-02-23T03:28:25;101280.84;;;-1.08;100.00
61908;BME280;47864;52.526;19.672;2023-02-23T03:32:51;101293.31;;;-0.94;100.00
61908;BME280;47864;52.526;19.672;2023-02-23T03:37:09;101296.81;;;-0.95;100.00
61908;BME280;47864;52.526;19.672;2023-02-23T03:39:32;101295.84;;;-0.93;100.00
61908;BME280;47864;52.526;19.672;2023-02-23T03:41:39;101283.50;;;-1.09;100.00
61908;BME280;47864;52.526;19.672;2023-02-23T03:43:47;101291.53;;;-0.94;100.00
61908;BME280;47864;52.526;19.672;2023-02-23T03:45:52;101293.94;;;-0.89;100.00
61908;BME280;47864;52.526;19.672;2023-02-23T03:47:58;101290.59;;;-0.91;100.00
61908;BME280;47864;52.526;19.672;2023-02-23T03:50:03;101276.88;;;-0.96;100.00
61908;BME280;47864;52.526;19.672;2023-02-23T03:52:15;101280.88;;;-0.88;100.00
61908;BME280;47864;52.526;19.672;2023-02-23T03:54:36;101287.78;;;-0.87;100.00
61908;BME280;47864;52.526;19.672;2023-02-23T03:56:42;101283.84;;;-0.97;100.00
61908;BME280;47864;52.526;19.672;2023-02-23T03:58:55;101287.97;;;-0.91;100.00
61908;BME280;47864;52.526;19.672;2023-02-23T04:01:00;101268.88;;;-1.13;100.00
61908;BME280;47864;52.526;19.672;2023-02-23T04:03:05;101283.78;;;-1.17;100.00
61908;BME280;47864;52.526;19.672;2023-02-23T04:05:14;101284.09;;;-1.25;100.00
61908;BME280;47864;52.526;19.672;2023-02-23T04:07:18;101285.94;;;-1.28;100.00
61908;BME280;47864;52.526;19.672;2023-02-23T04:09:19;101278.03;;;-1.25;100.00
61908;BME280;47864;52.526;19.672;2023-02-23T04:11:30;101259.97;;;-1.30;100.00
61908;BME280;47864;52.526;19.672;2023-02-23T04:13:36;101270.44;;;-1.31;100.00
61908;BME280;47864;52.526;19.672;2023-02-23T04:15:53;101277.19;;;-1.26;100.00
61908;BME280;47864;52.526;19.672;2023-02-23T04:17:56;101274.09;;;-1.13;100.00
61908;BME280;47864;52.526;19.672;2023-02-23T04:19:57;101280.44;;;-1.21;100.00
61908;BME280;47864;52.526;19.672;2023-02-23T04:21:58;101270.28;;;-1.27;100.00
61908;BME280;47864;52.526;19.672;2023-02-23T04:24:00;101273.75;;;-1.26;100.00
61908;BME280;47864;52.526;19.672;2023-02-23T04:26:02;101273.75;;;-1.26;100.00
61908;BME280;47864;52.526;19.672;2023-02-23T04:28:03;101278.34;;;-1.33;100.00
61908;BME280;47864;52.526;19.672;2023-02-23T04:30:05;101238.53;;;-1.58;100.00
61908;BME280;47864;52.526;19.672;2023-02-23T04:32:12;101259.66;;;-1.44;100.00
61908;BME280;47864;52.526;19.672;2023-02-23T04:34:14;101271.59;;;-1.38;100.00
61908;BME280;47864;52.526;19.672;2023-02-23T04:36:16;101266.94;;;-1.30;100.00
61908;BME280;47864;52.526;19.672;2023-02-23T04:38:17;101270.72;;;-1.16;100.00
61908;BME280;47864;52.526;19.672;2023-02-23T04:40:18;101271.28;;;-1.07;100.00
61908;BME280;47864;52.526;19.672;2023-02-23T04:42:20;101262.72;;;-1.11;100.00
61908;BME280;47864;52.526;19.672;2023-02-23T04:44:22;101244.81;;;-1.19;100.00
61908;BME280;47864;52.526;19.672;2023-02-23T04:46:23;101264.53;;;-1.13;100.00
61908;BME280;47864;52.526;19.672;2023-02-23T04:48:25;101258.47;;;-1.13;100.00
61908;BME280;47864;52.526;19.672;2023-02-23T04:50:27;101240.09;;;-1.09;100.00
61908;BME280;47864;52.526;19.672;2023-02-23T04:52:28;101254.19;;;-0.93;100.00
61908;BME280;47864;52.526;19.672;2023-02-23T04:54:30;101247.66;;;-1.03;100.00
61908;BME280;47864;52.526;19.672;2023-02-23T04:56:31;101257.00;;;-0.99;100.00
61908;BME280;47864;52.526;19.672;2023-02-23T04:58:33;101257.34;;;-0.64;100.00
61908;BME280;47864;52.526;19.672;2023-02-23T05:00:35;101247.56;;;-0.80;100.00
61908;BME280;47864;52.526;19.672;2023-02-23T05:02:36;101248.63;;;-0.63;100.00
61908;BME280;47864;52.526;19.672;2023-02-23T05:04:38;101251.81;;;-0.57;100.00
61908;BME280;47864;52.526;19.672;2023-02-23T05:06:39;101250.00;;;-0.55;100.00
61908;BME280;47864;52.526;19.672;2023-02-23T05:08:41;101239.03;;;-0.63;100.00
61908;BME280;47864;52.526;19.672;2023-02-23T05:10:44;101223.88;;;-0.53;100.00
61908;BME280;47864;52.526;19.672;2023-02-23T05:12:46;101253.06;;;-0.45;100.00
61908;BME280;47864;52.526;19.672;2023-02-23T05:14:47;101244.59;;;-0.30;100.00
61908;BME280;47864;52.526;19.672;2023-02-23T05:16:49;101233.19;;;-0.48;100.00
61908;BME280;47864;52.526;19.672;2023-02-23T05:18:50;101242.00;;;-0.50;100.00
61908;BME280;47864;52.526;19.672;2023-02-23T05:20:53;101203.16;;;-0.77;100.00
61908;BME280;47864;52.526;19.672;2023-02-23T05:23:01;101244.34;;;-0.44;100.00
61908;BME280;47864;52.526;19.672;2023-02-23T05:25:03;101236.75;;;-0.30;100.00
61908;BME280;47864;52.526;19.672;2023-02-23T05:27:06;101243.28;;;-0.20;100.00
61908;BME280;47864;52.526;19.672;2023-02-23T05:29:08;101249.84;;;-0.31;100.00
61908;BME280;47864;52.526;19.672;2023-02-23T05:31:10;101250.53;;;-0.26;100.00
61908;BME280;47864;52.526;19.672;2023-02-23T05:33:11;101247.75;;;-0.23;100.00
61908;BME280;47864;52.526;19.672;2023-02-23T05:35:13;101236.25;;;-0.18;100.00
61908;BME280;47864;52.526;19.672;2023-02-23T05:37:15;101245.38;;;-0.28;100.00
61908;BME280;47864;52.526;19.672;2023-02-23T05:39:16;101245.63;;;-0.14;100.00
61908;BME280;47864;52.526;19.672;2023-02-23T05:41:19;101248.94;;;-0.10;100.00
61908;BME280;47864;52.526;19.672;2023-02-23T05:43:21;101248.22;;;-0.14;100.00
61908;BME280;47864;52.526;19.672;2023-02-23T05:45:23;101240.63;;;-0.18;100.00
61908;BME280;47864;52.526;19.672;2023-02-23T05:47:24;101247.94;;;-0.08;100.00
61908;BME280;47864;52.526;19.672;2023-02-23T05:49:26;101227.06;;;-0.26;100.00
61908;BME280;47864;52.526;19.672;2023-02-23T05:51:29;101250.75;;;-0.12;100.00
61908;BME280;47864;52.526;19.672;2023-02-23T05:53:32;101234.22;;;-0.11;100.00
61908;BME280;47864;52.526;19.672;2023-02-23T05:55:34;101244.91;;;-0.17;100.00
61908;BME280;47864;52.526;19.672;2023-02-23T05:57:37;101250.88;;;-0.15;100.00
61908;BME280;47864;52.526;19.672;2023-02-23T05:59:38;101238.56;;;-0.12;100.00
61908;BME280;47864;52.526;19.672;2023-02-23T06:01:40;101238.75;;;-0.16;100.00
61908;BME280;47864;52.526;19.672;2023-02-23T06:03:43;101251.50;;;-0.09;100.00
61908;BME280;47864;52.526;19.672;2023-02-23T06:05:49;101239.81;;;0.00;100.00
61908;BME280;47864;52.526;19.672;2023-02-23T06:07:50;101232.13;;;-0.03;100.00
61908;BME280;47864;52.526;19.672;2023-02-23T06:09:52;101249.47;;;-0.02;100.00
61908;BME280;47864;52.526;19.672;2023-02-23T06:11:53;101251.78;;;-0.16;100.00
61908;BME280;47864;52.526;19.672;2023-02-23T06:13:57;101248.59;;;-0.03;100.00
61908;BME280;47864;52.526;19.672;2023-02-23T06:15:59;101247.88;;;-0.06;100.00
61908;BME280;47864;52.526;19.672;2023-02-23T06:18:01;101239.66;;;0.03;100.00
61908;BME280;47864;52.526;19.672;2023-02-23T06:20:04;101241.63;;;-0.02;100.00
61908;BME280;47864;52.526;19.672;2023-02-23T06:22:05;101242.28;;;0.22;100.00
61908;BME280;47864;52.526;19.672;2023-02-23T06:24:07;101246.09;;;0.15;100.00
61908;BME280;47864;52.526;19.672;2023-02-23T06:26:08;101253.25;;;0.10;100.00
61908;BME280;47864;52.526;19.672;2023-02-23T06:28:10;101251.09;;;0.19;100.00
61908;BME280;47864;52.526;19.672;2023-02-23T06:30:12;101248.03;;;0.10;100.00
61908;BME280;47864;52.526;19.672;2023-02-23T06:32:13;101252.97;;;-0.03;100.00
61908;BME280;47864;52.526;19.672;2023-02-23T06:34:15;101225.59;;;-0.13;100.00
61908;BME280;47864;52.526;19.672;2023-02-23T06:36:16;101251.75;;;0.24;100.00
61908;BME280;47864;52.526;19.672;2023-02-23T06:38:19;101242.13;;;0.25;100.00
61908;BME280;47864;52.526;19.672;2023-02-23T06:40:20;101254.00;;;0.13;100.00
61908;BME280;47864;52.526;19.672;2023-02-23T06:42:22;101254.41;;;0.42;100.00
61908;BME280;47864;52.526;19.672;2023-02-23T06:44:24;101235.38;;;0.21;100.00
61908;BME280;47864;52.526;19.672;2023-02-23T06:46:25;101233.34;;;0.46;100.00
61908;BME280;47864;52.526;19.672;2023-02-23T06:48:27;101258.16;;;0.55;100.00
61908;BME280;47864;52.526;19.672;2023-02-23T06:50:28;101231.66;;;0.45;100.00
61908;BME280;47864;52.526;19.672;2023-02-23T06:52:30;101237.72;;;0.46;100.00
61908;BME280;47864;52.526;19.672;2023-02-23T06:54:31;101250.53;;;0.69;100.00
61908;BME280;47864;52.526;19.672;2023-02-23T06:56:33;101254.59;;;0.93;100.00
61908;BME280;47864;52.526;19.672;2023-02-23T06:58:34;101254.75;;;0.90;100.00
61908;BME280;47864;52.526;19.672;2023-02-23T07:00:36;101205.38;;;0.67;100.00
61908;BME280;47864;52.526;19.672;2023-02-23T07:02:38;101255.22;;;0.62;100.00
61908;BME280;47864;52.526;19.672;2023-02-23T07:04:39;101233.66;;;0.76;100.00
61908;BME280;47864;52.526;19.672;2023-02-23T07:06:41;101230.78;;;0.45;100.00
61908;BME280;47864;52.526;19.672;2023-02-23T07:08:42;101258.72;;;0.43;100.00
61908;BME280;47864;52.526;19.672;2023-02-23T07:10:45;101262.31;;;0.59;100.00
61908;BME280;47864;52.526;19.672;2023-02-23T07:12:46;101260.41;;;0.44;100.00
61908;BME280;47864;52.526;19.672;2023-02-23T07:14:48;101256.25;;;0.58;100.00
61908;BME280;47864;52.526;19.672;2023-02-23T07:16:49;101238.25;;;0.71;100.00
61908;BME280;47864;52.526;19.672;2023-02-23T07:18:50;101250.34;;;0.73;100.00
61908;BME280;47864;52.526;19.672;2023-02-23T07:20:52;101245.66;;;0.80;100.00
61908;BME280;47864;52.526;19.672;2023-02-23T07:22:53;101227.63;;;0.57;100.00
61908;BME280;47864;52.526;19.672;2023-02-23T07:24:56;101249.13;;;0.62;100.00
61908;BME280;47864;52.526;19.672;2023-02-23T07:26:57;101240.56;;;0.96;100.00
61908;BME280;47864;52.526;19.672;2023-02-23T07:28:59;101245.00;;;0.94;100.00
61908;BME280;47864;52.526;19.672;2023-02-23T07:31:01;101235.41;;;0.94;100.00
61908;BME280;47864;52.526;19.672;2023-02-23T07:33:02;101242.25;;;0.97;100.00
61908;BME280;47864;52.526;19.672;2023-02-23T07:35:05;101241.59;;;0.92;100.00
61908;BME280;47864;52.526;19.672;2023-02-23T07:37:06;101229.28;;;1.12;100.00
61908;BME280;47864;52.526;19.672;2023-02-23T07:39:08;101216.06;;;1.15;100.00
61908;BME280;47864;52.526;19.672;2023-02-23T07:41:09;101225.28;;;1.05;100.00
61908;BME280;47864;52.526;19.672;2023-02-23T07:43:11;101231.13;;;1.28;100.00
61908;BME280;47864;52.526;19.672;2023-02-23T07:45:12;101207.84;;;1.06;100.00
61908;BME280;47864;52.526;19.672;2023-02-23T07:47:14;101225.31;;;1.23;100.00
61908;BME280;47864;52.526;19.672;2023-02-23T07:49:15;101202.72;;;1.22;100.00
61908;BME280;47864;52.526;19.672;2023-02-23T07:51:17;101230.97;;;1.65;100.00
61908;BME280;47864;52.526;19.672;2023-02-23T07:53:19;101187.63;;;1.44;100.00
61908;BME280;47864;52.526;19.672;2023-02-23T07:55:21;101218.97;;;1.78;100.00
61908;BME280;47864;52.526;19.672;2023-02-23T07:57:22;101210.63;;;1.87;100.00
61908;BME280;47864;52.526;19.672;2023-02-23T07:59:25;101205.00;;;1.62;100.00
61908;BME280;47864;52.526;19.672;2023-02-23T08:01:27;101207.38;;;1.49;100.00
61908;BME280;47864;52.526;19.672;2023-02-23T08:03:28;101203.81;;;2.01;100.00
61908;BME280;47864;52.526;19.672;2023-02-23T08:05:30;101189.63;;;1.89;100.00
61908;BME280;47864;52.526;19.672;2023-02-23T08:07:32;101204.53;;;2.20;100.00
61908;BME280;47864;52.526;19.672;2023-02-23T08:09:34;101200.75;;;2.41;100.00
61908;BME280;47864;52.526;19.672;2023-02-23T08:11:35;101196.97;;;1.98;100.00
61908;BME280;47864;52.526;19.672;2023-02-23T08:13:37;101168.13;;;2.15;100.00
61908;BME280;47864;52.526;19.672;2023-02-23T08:15:39;101190.88;;;2.31;100.00
61908;BME280;47864;52.526;19.672;2023-02-23T08:17:40;101184.53;;;2.50;100.00
61908;BME280;47864;52.526;19.672;2023-02-23T08:19:42;101169.00;;;2.63;100.00
61908;BME280;47864;52.526;19.672;2023-02-23T08:21:43;101170.13;;;2.73;99.50
61908;BME280;47864;52.526;19.672;2023-02-23T08:23:45;101181.72;;;2.85;98.74
61908;BME280;47864;52.526;19.672;2023-02-23T08:25:46;101165.69;;;2.44;97.62
61908;BME280;47864;52.526;19.672;2023-02-23T08:27:48;101166.88;;;2.54;99.62
61908;BME280;47864;52.526;19.672;2023-02-23T08:29:50;101160.47;;;2.28;99.41
61908;BME280;47864;52.526;19.672;2023-02-23T08:31:51;101168.31;;;2.59;99.90
61908;BME280;47864;52.526;19.672;2023-02-23T08:33:53;101165.34;;;2.65;98.83
61908;BME280;47864;52.526;19.672;2023-02-23T08:35:57;101160.63;;;2.41;97.73
61908;BME280;47864;52.526;19.672;2023-02-23T08:37:59;101143.13;;;2.57;98.00
61908;BME280;47864;52.526;19.672;2023-02-23T08:40:00;101165.50;;;2.78;98.58
61908;BME280;47864;52.526;19.672;2023-02-23T08:42:03;101147.59;;;2.71;94.88
61908;BME280;47864;52.526;19.672;2023-02-23T08:44:04;101097.47;;;2.31;96.25
61908;BME280;47864;52.526;19.672;2023-02-23T08:46:06;101158.25;;;2.67;94.89
61908;BME280;47864;52.526;19.672;2023-02-23T08:48:08;101160.72;;;3.00;93.71
61908;BME280;47864;52.526;19.672;2023-02-23T08:50:10;101153.25;;;3.09;94.53
61908;BME280;47864;52.526;19.672;2023-02-23T08:52:12;101145.06;;;2.99;94.64
61908;BME280;47864;52.526;19.672;2023-02-23T08:54:13;101135.44;;;2.99;94.63
61908;BME280;47864;52.526;19.672;2023-02-23T08:56:15;101143.75;;;2.92;94.89
61908;BME280;47864;52.526;19.672;2023-02-23T08:58:16;101157.47;;;3.11;94.76
61908;BME280;47864;52.526;19.672;2023-02-23T09:00:18;101116.84;;;3.04;94.08
61908;BME280;47864;52.526;19.672;2023-02-23T09:02:20;101129.44;;;3.41;92.09
61908;BME280;47864;52.526;19.672;2023-02-23T09:04:21;101141.59;;;3.28;92.82
61908;BME280;47864;52.526;19.672;2023-02-23T09:06:24;101150.69;;;3.37;92.79
61908;BME280;47864;52.526;19.672;2023-02-23T09:08:25;101142.78;;;3.23;92.08
61908;BME280;47864;52.526;19.672;2023-02-23T09:10:27;101143.91;;;3.19;94.59
61908;BME280;47864;52.526;19.672;2023-02-23T09:12:28;101142.75;;;3.53;92.05
61908;BME280;47864;52.526;19.672;2023-02-23T09:14:30;101128.50;;;3.57;92.38
61908;BME280;47864;52.526;19.672;2023-02-23T09:16:31;101134.31;;;3.48;91.94
61908;BME280;47864;52.526;19.672;2023-02-23T09:18:34;101109.84;;;3.33;93.28
61908;BME280;47864;52.526;19.672;2023-02-23T09:20:36;101121.75;;;3.38;92.43
61908;BME280;47864;52.526;19.672;2023-02-23T09:22:39;101118.69;;;3.60;92.10
61908;BME280;47864;52.526;19.672;2023-02-23T09:24:41;101126.53;;;3.60;92.85
61908;BME280;47864;52.526;19.672;2023-02-23T09:26:42;101120.91;;;3.66;92.89
61908;BME280;47864;52.526;19.672;2023-02-23T09:28:47;101121.00;;;3.93;93.82
61908;BME280;47864;52.526;19.672;2023-02-23T09:30:49;101116.50;;;3.67;92.43
61908;BME280;47864;52.526;19.672;2023-02-23T09:32:51;101110.97;;;4.00;91.85
61908;BME280;47864;52.526;19.672;2023-02-23T09:34:53;101114.25;;;3.75;92.65
61908;BME280;47864;52.526;19.672;2023-02-23T09:36:54;101099.03;;;4.08;92.76
61908;BME280;47864;52.526;19.672;2023-02-23T09:38:56;101106.13;;;4.20;92.40
61908;BME280;47864;52.526;19.672;2023-02-23T09:40:58;101095.59;;;4.35;92.40
61908;BME280;47864;52.526;19.672;2023-02-23T09:45:25;101097.03;;;4.26;90.01
61908;BME280;47864;52.526;19.672;2023-02-23T09:49:53;101091.13;;;4.22;91.53
61908;BME280;47864;52.526;19.672;2023-02-23T09:51:57;101090.97;;;4.38;90.99
61908;BME280;47864;52.526;19.672;2023-02-23T09:54:01;101091.66;;;4.54;90.45
61908;BME280;47864;52.526;19.672;2023-02-23T09:56:07;101075.72;;;4.57;91.64
61908;BME280;47864;52.526;19.672;2023-02-23T09:58:19;101093.19;;;4.71;91.30
61908;BME280;47864;52.526;19.672;2023-02-23T10:00:24;101085.63;;;4.67;91.05
61908;BME280;47864;52.526;19.672;2023-02-23T10:02:33;101078.81;;;4.77;90.50
61908;BME280;47864;52.526;19.672;2023-02-23T10:04:45;101084.19;;;4.88;89.50
61908;BME280;47864;52.526;19.672;2023-02-23T10:07:02;101080.09;;;4.84;88.98
61908;BME280;47864;52.526;19.672;2023-02-23T10:09:22;101060.28;;;4.66;90.10
61908;BME280;47864;52.526;19.672;2023-02-23T10:11:43;101070.22;;;4.48;91.51
61908;BME280;47864;52.526;19.672;2023-02-23T10:14:14;101061.06;;;4.53;91.89
61908;BME280;47864;52.526;19.672;2023-02-23T10:16:28;101066.53;;;4.77;92.18
61908;BME280;47864;52.526;19.672;2023-02-23T10:18:51;101060.59;;;4.61;92.16
61908;BME280;47864;52.526;19.672;2023-02-23T10:21:01;101059.44;;;4.65;93.37
61908;BME280;47864;52.526;19.672;2023-02-23T10:23:16;101061.31;;;4.63;92.86
61908;BME280;47864;52.526;19.672;2023-02-23T10:25:23;101048.50;;;4.58;93.66
61908;BME280;47864;52.526;19.672;2023-02-23T10:27:34;101046.97;;;4.81;92.35
61908;BME280;47864;52.526;19.672;2023-02-23T10:29:57;101039.56;;;4.61;93.44
61908;BME280;47864;52.526;19.672;2023-02-23T10:32:03;101040.19;;;4.52;94.03
61908;BME280;47864;52.526;19.672;2023-02-23T10:34:12;101044.59;;;4.51;94.52
61908;BME280;47864;52.526;19.672;2023-02-23T10:36:37;101040.38;;;4.62;94.90
61908;BME280;47864;52.526;19.672;2023-02-23T10:38:40;100989.66;;;4.61;94.42
61908;BME280;47864;52.526;19.672;2023-02-23T10:40:44;101030.44;;;4.79;92.50
61908;BME280;47864;52.526;19.672;2023-02-23T10:42:46;101014.34;;;4.71;93.61
61908;BME280;47864;52.526;19.672;2023-02-23T10:44:48;101025.09;;;4.68;95.81
61908;BME280;47864;52.526;19.672;2023-02-23T10:47:07;101021.97;;;5.01;94.21
61908;BME280;47864;52.526;19.672;2023-02-23T10:49:19;101025.53;;;5.00;93.03
61908;BME280;47864;52.526;19.672;2023-02-23T10:51:28;101012.16;;;5.16;92.12
61908;BME280;47864;52.526;19.672;2023-02-23T10:53:35;100992.81;;;5.17;91.83
61908;BME280;47864;52.526;19.672;2023-02-23T10:55:36;101004.25;;;5.41;90.29
61908;BME280;47864;52.526;19.672;2023-02-23T10:57:38;101004.69;;;5.35;90.47
61908;BME280;47864;52.526;19.672;2023-02-23T11:00:40;100998.75;;;5.44;89.60
61908;BME280;47864;52.526;19.672;2023-02-23T11:02:24;100969.13;;;5.42;88.92
61908;BME280;47864;52.526;19.672;2023-02-23T11:04:29;100995.75;;;5.74;89.79
61908;BME280;47864;52.526;19.672;2023-02-23T11:06:34;100973.44;;;5.43;88.05
61908;BME280;47864;52.526;19.672;2023-02-23T11:08:37;100994.56;;;5.78;88.95
61908;BME280;47864;52.526;19.672;2023-02-23T11:10:39;100962.19;;;5.65;87.19
61908;BME280;47864;52.526;19.672;2023-02-23T11:12:41;100983.34;;;5.76;87.93
61908;BME280;47864;52.526;19.672;2023-02-23T11:14:42;100979.91;;;5.87;86.63
61908;BME280;47864;52.526;19.672;2023-02-23T11:16:43;100985.22;;;5.74;87.42